TLPL/UVF METAR and TAF weather

Enter ICAO airport designator
Station Type Date Time Source
TLPL METAR 2019/06/26 20:00 UTC NOAA

TLPL 262000Z 09020KT 9999 FEW027 30/24 Q1014 NOSIG


Station Type Date Time Source
TLPL Decoded METAR 2019/06/26 20:00 UTC NOAA

Hewanorra International Airport, Saint Lucia (TLPL) 13-45N 060-57W 10M
Jun 26, 2019 - 04:00 PM EDT / 2019.06.26 2000 UTC
Wind: from the E (090 degrees) at 23 MPH (20 KT):0
Visibility: greater than 7 mile(s):0
Sky conditions: mostly clear
Temperature: 86 F (30 C)
Heat index: 95.0 F (35.0 C):1
Dew Point: 75 F (24 C)
Relative Humidity: 70%
Pressure (altimeter): 29.94 in. Hg (1014 hPa)
ob: TLPL 262000Z 09020KT 9999 FEW027 30/24 Q1014 NOSIG
cycle: 20

Station Type Date Time Source
TLPL TAF 2019/06/26 18:28 UTC NOAA

TAF TLPL 261700Z 2618/2718 08018KT 9999 SCT026
TEMPO 2700/2718 SHRA BKN018

Example: see airport list